sensor_id;sensor_type;location;lat;lon;timestamp;temperature;humidity
20416;DHT22;10367;52.202;5.996;2023-07-22T00:00:42;13.70;99.90
20416;DHT22;10367;52.202;5.996;2023-07-22T00:03:11;13.80;99.90
20416;DHT22;10367;52.202;5.996;2023-07-22T00:05:40;13.70;99.90
20416;DHT22;10367;52.202;5.996;2023-07-22T00:08:09;13.70;99.90
20416;DHT22;10367;52.202;5.996;2023-07-22T00:10:41;13.70;99.90
20416;DHT22;10367;52.202;5.996;2023-07-22T00:13:12;13.60;99.90
20416;DHT22;10367;52.202;5.996;2023-07-22T00:15:40;13.60;99.90
20416;DHT22;10367;52.202;5.996;2023-07-22T00:18:10;13.60;99.90
20416;DHT22;10367;52.202;5.996;2023-07-22T00:20:38;13.50;99.90
20416;DHT22;10367;52.202;5.996;2023-07-22T00:23:07;13.50;99.90
20416;DHT22;10367;52.202;5.996;2023-07-22T00:25:37;13.50;99.90
20416;DHT22;10367;52.202;5.996;2023-07-22T00:28:06;13.50;99.90
20416;DHT22;10367;52.202;5.996;2023-07-22T00:30:36;13.40;99.90
20416;DHT22;10367;52.202;5.996;2023-07-22T00:33:05;13.30;99.90
20416;DHT22;10367;52.202;5.996;2023-07-22T00:35:36;13.30;99.90
20416;DHT22;10367;52.202;5.996;2023-07-22T00:38:05;13.20;99.90
20416;DHT22;10367;52.202;5.996;2023-07-22T00:40:43;13.20;99.90
20416;DHT22;10367;52.202;5.996;2023-07-22T00:43:17;13.20;99.90
20416;DHT22;10367;52.202;5.996;2023-07-22T00:45:47;13.20;99.90
20416;DHT22;10367;52.202;5.996;2023-07-22T00:48:18;13.30;99.90
20416;DHT22;10367;52.202;5.996;2023-07-22T00:50:57;13.30;99.90
20416;DHT22;10367;52.202;5.996;2023-07-22T00:53:26;13.30;99.90
20416;DHT22;10367;52.202;5.996;2023-07-22T00:55:55;13.30;99.90
20416;DHT22;10367;52.202;5.996;2023-07-22T00:58:24;13.20;99.90
20416;DHT22;10367;52.202;5.996;2023-07-22T01:00:55;13.20;99.90
20416;DHT22;10367;52.202;5.996;2023-07-22T01:03:24;13.20;99.90
20416;DHT22;10367;52.202;5.996;2023-07-22T01:05:54;13.20;99.90
20416;DHT22;10367;52.202;5.996;2023-07-22T01:08:30;13.10;99.90
20416;DHT22;10367;52.202;5.996;2023-07-22T01:10:59;13.10;99.90
20416;DHT22;10367;52.202;5.996;2023-07-22T01:13:31;13.20;99.90
20416;DHT22;10367;52.202;5.996;2023-07-22T01:16:07;13.10;99.90
20416;DHT22;10367;52.202;5.996;2023-07-22T01:18:37;13.10;99.90
20416;DHT22;10367;52.202;5.996;2023-07-22T01:21:07;13.10;99.90
20416;DHT22;10367;52.202;5.996;2023-07-22T01:23:40;13.20;99.90
20416;DHT22;10367;52.202;5.996;2023-07-22T01:26:12;13.20;99.90
20416;DHT22;10367;52.202;5.996;2023-07-22T01:28:40;13.20;99.90
20416;DHT22;10367;52.202;5.996;2023-07-22T01:31:09;13.20;99.90
20416;DHT22;10367;52.202;5.996;2023-07-22T01:33:39;13.30;99.90
20416;DHT22;10367;52.202;5.996;2023-07-22T01:36:08;13.30;99.90
20416;DHT22;10367;52.202;5.996;2023-07-22T01:38:38;13.20;99.90
20416;DHT22;10367;52.202;5.996;2023-07-22T01:41:07;13.20;99.90
20416;DHT22;10367;52.202;5.996;2023-07-22T01:43:36;13.30;99.90
20416;DHT22;10367;52.202;5.996;2023-07-22T01:46:11;13.30;99.90
20416;DHT22;10367;52.202;5.996;2023-07-22T01:48:44;13.30;99.90
20416;DHT22;10367;52.202;5.996;2023-07-22T01:51:13;13.30;99.90
20416;DHT22;10367;52.202;5.996;2023-07-22T01:53:46;13.40;99.90
20416;DHT22;10367;52.202;5.996;2023-07-22T01:56:15;13.40;99.90
20416;DHT22;10367;52.202;5.996;2023-07-22T01:58:47;13.40;99.90
20416;DHT22;10367;52.202;5.996;2023-07-22T02:01:16;13.30;99.90
20416;DHT22;10367;52.202;5.996;2023-07-22T02:03:45;13.40;99.90
20416;DHT22;10367;52.202;5.996;2023-07-22T02:06:19;13.40;99.90
20416;DHT22;10367;52.202;5.996;2023-07-22T02:08:49;13.40;99.90
20416;DHT22;10367;52.202;5.996;2023-07-22T02:11:19;13.30;99.90
20416;DHT22;10367;52.202;5.996;2023-07-22T02:13:47;13.30;99.90
20416;DHT22;10367;52.202;5.996;2023-07-22T02:16:16;13.30;99.90
20416;DHT22;10367;52.202;5.996;2023-07-22T02:18:48;13.30;99.90
20416;DHT22;10367;52.202;5.996;2023-07-22T02:21:17;13.30;99.90
20416;DHT22;10367;52.202;5.996;2023-07-22T02:23:45;13.20;99.90
20416;DHT22;10367;52.202;5.996;2023-07-22T02:26:16;13.20;99.90
20416;DHT22;10367;52.202;5.996;2023-07-22T02:28:44;13.10;99.90
20416;DHT22;10367;52.202;5.996;2023-07-22T02:31:15;13.10;99.90
20416;DHT22;10367;52.202;5.996;2023-07-22T02:33:51;13.00;99.90
20416;DHT22;10367;52.202;5.996;2023-07-22T02:36:20;13.00;99.90
20416;DHT22;10367;52.202;5.996;2023-07-22T02:38:49;13.00;99.90
20416;DHT22;10367;52.202;5.996;2023-07-22T02:41:23;13.00;99.90
20416;DHT22;10367;52.202;5.996;2023-07-22T02:44:00;12.90;99.90
20416;DHT22;10367;52.202;5.996;2023-07-22T02:46:34;12.90;99.90
20416;DHT22;10367;52.202;5.996;2023-07-22T02:49:03;12.90;99.90
20416;DHT22;10367;52.202;5.996;2023-07-22T02:51:32;12.90;99.90
20416;DHT22;10367;52.202;5.996;2023-07-22T02:54:02;12.80;99.90
20416;DHT22;10367;52.202;5.996;2023-07-22T02:56:34;12.80;99.90
20416;DHT22;10367;52.202;5.996;2023-07-22T02:59:03;12.80;99.90
20416;DHT22;10367;52.202;5.996;2023-07-22T03:01:34;12.80;99.90
20416;DHT22;10367;52.202;5.996;2023-07-22T03:04:04;12.80;99.90
20416;DHT22;10367;52.202;5.996;2023-07-22T03:06:33;12.80;99.90
20416;DHT22;10367;52.202;5.996;2023-07-22T03:09:04;12.80;99.90
20416;DHT22;10367;52.202;5.996;2023-07-22T03:11:35;12.70;99.90
20416;DHT22;10367;52.202;5.996;2023-07-22T03:14:04;12.70;99.90
20416;DHT22;10367;52.202;5.996;2023-07-22T03:16:33;12.70;99.90
20416;DHT22;10367;52.202;5.996;2023-07-22T03:19:05;12.70;99.90
20416;DHT22;10367;52.202;5.996;2023-07-22T03:21:34;12.70;99.90
20416;DHT22;10367;52.202;5.996;2023-07-22T03:24:03;12.70;99.90
20416;DHT22;10367;52.202;5.996;2023-07-22T03:26:34;12.70;99.90
20416;DHT22;10367;52.202;5.996;2023-07-22T03:29:03;12.60;99.90
20416;DHT22;10367;52.202;5.996;2023-07-22T03:31:33;12.60;99.90
20416;DHT22;10367;52.202;5.996;2023-07-22T03:34:06;12.60;99.90
20416;DHT22;10367;52.202;5.996;2023-07-22T03:36:35;12.60;99.90
20416;DHT22;10367;52.202;5.996;2023-07-22T03:39:04;12.50;99.90
20416;DHT22;10367;52.202;5.996;2023-07-22T03:41:35;12.50;99.90
20416;DHT22;10367;52.202;5.996;2023-07-22T03:44:04;12.50;99.90
20416;DHT22;10367;52.202;5.996;2023-07-22T03:46:38;12.50;99.90
20416;DHT22;10367;52.202;5.996;2023-07-22T03:49:08;12.50;99.90
20416;DHT22;10367;52.202;5.996;2023-07-22T03:51:38;12.50;99.90
20416;DHT22;10367;52.202;5.996;2023-07-22T03:54:09;12.50;99.90
20416;DHT22;10367;52.202;5.996;2023-07-22T03:56:41;12.60;99.90
20416;DHT22;10367;52.202;5.996;2023-07-22T03:59:10;12.60;99.90
20416;DHT22;10367;52.202;5.996;2023-07-22T04:01:39;12.70;99.90
20416;DHT22;10367;52.202;5.996;2023-07-22T04:04:08;12.70;99.90
20416;DHT22;10367;52.202;5.996;2023-07-22T04:06:40;12.70;99.90
20416;DHT22;10367;52.202;5.996;2023-07-22T04:09:09;12.80;99.90
20416;DHT22;10367;52.202;5.996;2023-07-22T04:11:39;12.80;99.90
20416;DHT22;10367;52.202;5.996;2023-07-22T04:14:08;12.80;99.90
20416;DHT22;10367;52.202;5.996;2023-07-22T04:16:39;12.80;99.90
20416;DHT22;10367;52.202;5.996;2023-07-22T04:19:08;12.80;99.90
20416;DHT22;10367;52.202;5.996;2023-07-22T04:21:40;12.80;99.90
20416;DHT22;10367;52.202;5.996;2023-07-22T04:24:09;12.90;99.90
20416;DHT22;10367;52.202;5.996;2023-07-22T04:26:43;12.90;99.90
20416;DHT22;10367;52.202;5.996;2023-07-22T04:29:12;12.90;99.90
20416;DHT22;10367;52.202;5.996;2023-07-22T04:31:41;12.90;99.90
20416;DHT22;10367;52.202;5.996;2023-07-22T04:34:10;12.80;99.90
20416;DHT22;10367;52.202;5.996;2023-07-22T04:36:40;12.90;99.90
20416;DHT22;10367;52.202;5.996;2023-07-22T04:39:09;12.90;99.90
20416;DHT22;10367;52.202;5.996;2023-07-22T04:41:40;13.00;99.90
20416;DHT22;10367;52.202;5.996;2023-07-22T04:44:10;13.00;99.90
20416;DHT22;10367;52.202;5.996;2023-07-22T04:46:39;13.10;99.90
20416;DHT22;10367;52.202;5.996;2023-07-22T04:49:08;13.10;99.90
20416;DHT22;10367;52.202;5.996;2023-07-22T04:51:37;13.20;99.90
20416;DHT22;10367;52.202;5.996;2023-07-22T04:54:06;13.20;99.90
20416;DHT22;10367;52.202;5.996;2023-07-22T04:56:35;13.40;99.90
20416;DHT22;10367;52.202;5.996;2023-07-22T04:59:06;13.50;99.90
20416;DHT22;10367;52.202;5.996;2023-07-22T05:01:42;13.60;99.90
20416;DHT22;10367;52.202;5.996;2023-07-22T05:04:11;13.70;99.90
20416;DHT22;10367;52.202;5.996;2023-07-22T05:06:43;13.70;99.90
20416;DHT22;10367;52.202;5.996;2023-07-22T05:09:12;13.80;99.90
20416;DHT22;10367;52.202;5.996;2023-07-22T05:11:45;13.90;99.90
20416;DHT22;10367;52.202;5.996;2023-07-22T05:14:14;14.00;99.90
20416;DHT22;10367;52.202;5.996;2023-07-22T05:16:47;14.10;99.90
20416;DHT22;10367;52.202;5.996;2023-07-22T05:19:22;14.20;99.90
20416;DHT22;10367;52.202;5.996;2023-07-22T05:21:53;14.30;99.90
20416;DHT22;10367;52.202;5.996;2023-07-22T05:24:22;14.40;99.90
20416;DHT22;10367;52.202;5.996;2023-07-22T05:27:05;14.40;99.90
20416;DHT22;10367;52.202;5.996;2023-07-22T05:29:36;14.40;99.90
20416;DHT22;10367;52.202;5.996;2023-07-22T05:32:10;14.50;99.90
20416;DHT22;10367;52.202;5.996;2023-07-22T05:35:05;14.60;99.90
20416;DHT22;10367;52.202;5.996;2023-07-22T05:37:36;14.60;99.90
20416;DHT22;10367;52.202;5.996;2023-07-22T05:40:06;14.70;99.90
20416;DHT22;10367;52.202;5.996;2023-07-22T05:42:36;14.80;99.90
20416;DHT22;10367;52.202;5.996;2023-07-22T05:45:08;15.00;99.90
20416;DHT22;10367;52.202;5.996;2023-07-22T05:47:44;15.00;99.90
20416;DHT22;10367;52.202;5.996;2023-07-22T05:50:18;15.20;99.90
20416;DHT22;10367;52.202;5.996;2023-07-22T05:52:47;15.30;99.90
20416;DHT22;10367;52.202;5.996;2023-07-22T05:55:17;15.40;99.90
20416;DHT22;10367;52.202;5.996;2023-07-22T05:57:52;15.50;99.90
20416;DHT22;10367;52.202;5.996;2023-07-22T06:00:21;15.70;99.90
20416;DHT22;10367;52.202;5.996;2023-07-22T06:02:56;15.80;99.90
20416;DHT22;10367;52.202;5.996;2023-07-22T06:05:25;15.90;99.90
20416;DHT22;10367;52.202;5.996;2023-07-22T06:07:54;16.10;99.90
20416;DHT22;10367;52.202;5.996;2023-07-22T06:10:31;16.20;99.90
20416;DHT22;10367;52.202;5.996;2023-07-22T06:13:00;16.30;99.90
20416;DHT22;10367;52.202;5.996;2023-07-22T06:15:33;16.30;99.90
20416;DHT22;10367;52.202;5.996;2023-07-22T06:18:05;16.30;99.90
20416;DHT22;10367;52.202;5.996;2023-07-22T06:20:46;16.50;99.90
20416;DHT22;10367;52.202;5.996;2023-07-22T06:23:15;16.60;99.90
20416;DHT22;10367;52.202;5.996;2023-07-22T06:25:46;16.70;99.90
20416;DHT22;10367;52.202;5.996;2023-07-22T06:28:15;16.90;99.90
20416;DHT22;10367;52.202;5.996;2023-07-22T06:30:43;17.00;99.90
20416;DHT22;10367;52.202;5.996;2023-07-22T06:33:16;17.00;99.90
20416;DHT22;10367;52.202;5.996;2023-07-22T06:35:44;17.00;99.90
20416;DHT22;10367;52.202;5.996;2023-07-22T06:38:19;17.10;99.90
20416;DHT22;10367;52.202;5.996;2023-07-22T06:40:55;17.20;99.90
20416;DHT22;10367;52.202;5.996;2023-07-22T06:43:24;17.30;99.90
20416;DHT22;10367;52.202;5.996;2023-07-22T06:45:56;17.30;99.90
20416;DHT22;10367;52.202;5.996;2023-07-22T06:48:26;17.30;99.90
20416;DHT22;10367;52.202;5.996;2023-07-22T06:50:55;17.40;99.90
20416;DHT22;10367;52.202;5.996;2023-07-22T06:53:26;17.40;99.90
20416;DHT22;10367;52.202;5.996;2023-07-22T06:55:57;17.30;99.90
20416;DHT22;10367;52.202;5.996;2023-07-22T06:58:26;17.40;99.90
20416;DHT22;10367;52.202;5.996;2023-07-22T07:00:56;17.40;99.90
20416;DHT22;10367;52.202;5.996;2023-07-22T07:03:26;17.50;99.90
20416;DHT22;10367;52.202;5.996;2023-07-22T07:05:55;17.60;99.90
20416;DHT22;10367;52.202;5.996;2023-07-22T07:08:32;17.60;99.90
20416;DHT22;10367;52.202;5.996;2023-07-22T07:11:00;17.70;99.90
20416;DHT22;10367;52.202;5.996;2023-07-22T07:13:30;17.80;99.90
20416;DHT22;10367;52.202;5.996;2023-07-22T07:16:20;17.90;99.90
20416;DHT22;10367;52.202;5.996;2023-07-22T07:18:52;17.90;99.90
20416;DHT22;10367;52.202;5.996;2023-07-22T07:21:22;17.90;99.90
20416;DHT22;10367;52.202;5.996;2023-07-22T07:23:52;18.00;99.90
20416;DHT22;10367;52.202;5.996;2023-07-22T07:26:27;18.00;99.90
20416;DHT22;10367;52.202;5.996;2023-07-22T07:28:59;18.10;99.90
20416;DHT22;10367;52.202;5.996;2023-07-22T07:31:28;18.20;99.90
20416;DHT22;10367;52.202;5.996;2023-07-22T07:34:01;18.30;99.90
20416;DHT22;10367;52.202;5.996;2023-07-22T07:36:31;18.50;99.90
20416;DHT22;10367;52.202;5.996;2023-07-22T07:39:09;18.60;99.90
20416;DHT22;10367;52.202;5.996;2023-07-22T07:41:40;18.80;99.90
20416;DHT22;10367;52.202;5.996;2023-07-22T07:44:09;18.90;99.90
20416;DHT22;10367;52.202;5.996;2023-07-22T07:46:38;19.10;99.90
20416;DHT22;10367;52.202;5.996;2023-07-22T07:49:08;19.20;99.90
20416;DHT22;10367;52.202;5.996;2023-07-22T07:51:38;19.30;99.90
20416;DHT22;10367;52.202;5.996;2023-07-22T07:54:06;19.20;99.90
20416;DHT22;10367;52.202;5.996;2023-07-22T07:56:35;19.20;99.90
20416;DHT22;10367;52.202;5.996;2023-07-22T07:59:05;19.20;99.90
20416;DHT22;10367;52.202;5.996;2023-07-22T08:01:39;19.30;99.90
20416;DHT22;10367;52.202;5.996;2023-07-22T08:04:12;19.50;99.90
20416;DHT22;10367;52.202;5.996;2023-07-22T08:06:41;19.60;99.90
20416;DHT22;10367;52.202;5.996;2023-07-22T08:09:10;19.80;99.90
20416;DHT22;10367;52.202;5.996;2023-07-22T08:11:46;19.90;99.90
20416;DHT22;10367;52.202;5.996;2023-07-22T08:14:15;20.00;99.90
20416;DHT22;10367;52.202;5.996;2023-07-22T08:17:03;20.10;99.90
20416;DHT22;10367;52.202;5.996;2023-07-22T08:19:39;20.00;99.90
20416;DHT22;10367;52.202;5.996;2023-07-22T08:22:08;20.10;99.90
20416;DHT22;10367;52.202;5.996;2023-07-22T08:24:37;20.20;99.90
20416;DHT22;10367;52.202;5.996;2023-07-22T08:27:06;20.40;99.90
20416;DHT22;10367;52.202;5.996;2023-07-22T08:29:35;20.50;99.90
20416;DHT22;10367;52.202;5.996;2023-07-22T08:32:04;20.60;99.90
20416;DHT22;10367;52.202;5.996;2023-07-22T08:34:34;20.50;99.90
20416;DHT22;10367;52.202;5.996;2023-07-22T08:37:05;20.30;99.90
20416;DHT22;10367;52.202;5.996;2023-07-22T08:39:39;20.20;99.90
20416;DHT22;10367;52.202;5.996;2023-07-22T08:42:09;20.10;99.90
20416;DHT22;10367;52.202;5.996;2023-07-22T08:44:43;20.00;99.90
20416;DHT22;10367;52.202;5.996;2023-07-22T08:47:20;19.90;99.90
20416;DHT22;10367;52.202;5.996;2023-07-22T08:49:52;19.90;99.90
20416;DHT22;10367;52.202;5.996;2023-07-22T08:52:23;20.00;99.90
20416;DHT22;10367;52.202;5.996;2023-07-22T08:54:55;20.00;99.90
20416;DHT22;10367;52.202;5.996;2023-07-22T08:57:25;20.10;99.90
20416;DHT22;10367;52.202;5.996;2023-07-22T08:59:57;20.00;99.90
20416;DHT22;10367;52.202;5.996;2023-07-22T09:02:26;20.20;99.90
20416;DHT22;10367;52.202;5.996;2023-07-22T09:04:56;20.60;99.90
20416;DHT22;10367;52.202;5.996;2023-07-22T09:07:28;20.90;99.90
20416;DHT22;10367;52.202;5.996;2023-07-22T09:09:58;21.10;99.90
20416;DHT22;10367;52.202;5.996;2023-07-22T09:12:28;21.20;99.90
20416;DHT22;10367;52.202;5.996;2023-07-22T09:14:57;21.10;99.90
20416;DHT22;10367;52.202;5.996;2023-07-22T09:17:27;21.20;99.90
20416;DHT22;10367;52.202;5.996;2023-07-22T09:19:59;21.40;99.90
20416;DHT22;10367;52.202;5.996;2023-07-22T09:22:32;21.70;99.90
20416;DHT22;10367;52.202;5.996;2023-07-22T09:28:01;21.70;99.90
20416;DHT22;10367;52.202;5.996;2023-07-22T09:30:30;21.80;99.90
20416;DHT22;10367;52.202;5.996;2023-07-22T09:33:06;21.80;99.90
20416;DHT22;10367;52.202;5.996;2023-07-22T09:35:44;21.80;99.90
20416;DHT22;10367;52.202;5.996;2023-07-22T09:38:24;21.80;99.90
20416;DHT22;10367;52.202;5.996;2023-07-22T09:40:54;21.90;99.90
20416;DHT22;10367;52.202;5.996;2023-07-22T09:43:23;22.00;99.90
20416;DHT22;10367;52.202;5.996;2023-07-22T09:46:06;22.00;99.90
20416;DHT22;10367;52.202;5.996;2023-07-22T09:48:42;21.90;99.90
20416;DHT22;10367;52.202;5.996;2023-07-22T09:51:13;21.90;99.90
20416;DHT22;10367;52.202;5.996;2023-07-22T09:53:59;21.80;99.90
20416;DHT22;10367;52.202;5.996;2023-07-22T09:56:31;21.90;99.90
20416;DHT22;10367;52.202;5.996;2023-07-22T09:59:04;21.90;99.90
20416;DHT22;10367;52.202;5.996;2023-07-22T10:01:37;21.90;99.90
20416;DHT22;10367;52.202;5.996;2023-07-22T10:04:06;21.80;99.90
20416;DHT22;10367;52.202;5.996;2023-07-22T10:06:35;21.60;99.90
20416;DHT22;10367;52.202;5.996;2023-07-22T10:09:07;21.30;99.90
20416;DHT22;10367;52.202;5.996;2023-07-22T10:11:36;21.00;99.90
20416;DHT22;10367;52.202;5.996;2023-07-22T10:14:05;20.80;99.90
20416;DHT22;10367;52.202;5.996;2023-07-22T10:16:34;20.80;99.90
20416;DHT22;10367;52.202;5.996;2023-07-22T10:19:04;20.90;99.90
20416;DHT22;10367;52.202;5.996;2023-07-22T10:21:37;21.10;99.90
20416;DHT22;10367;52.202;5.996;2023-07-22T10:24:09;21.20;99.90
20416;DHT22;10367;52.202;5.996;2023-07-22T10:26:40;21.20;99.90
20416;DHT22;10367;52.202;5.996;2023-07-22T10:29:15;21.20;99.90
20416;DHT22;10367;52.202;5.996;2023-07-22T10:31:44;21.10;99.90
20416;DHT22;10367;52.202;5.996;2023-07-22T10:34:24;21.10;99.90
20416;DHT22;10367;52.202;5.996;2023-07-22T10:36:55;21.10;99.90
20416;DHT22;10367;52.202;5.996;2023-07-22T10:39:26;21.00;99.90
20416;DHT22;10367;52.202;5.996;2023-07-22T10:42:00;21.00;99.90
20416;DHT22;10367;52.202;5.996;2023-07-22T10:44:32;21.10;99.90
20416;DHT22;10367;52.202;5.996;2023-07-22T10:47:01;21.20;99.90
20416;DHT22;10367;52.202;5.996;2023-07-22T10:49:48;21.40;99.90
20416;DHT22;10367;52.202;5.996;2023-07-22T10:52:38;21.50;99.90
20416;DHT22;10367;52.202;5.996;2023-07-22T10:55:16;21.40;99.90
20416;DHT22;10367;52.202;5.996;2023-07-22T10:57:48;21.10;99.90
20416;DHT22;10367;52.202;5.996;2023-07-22T11:00:19;21.00;99.90
20416;DHT22;10367;52.202;5.996;2023-07-22T11:03:10;21.10;99.90
20416;DHT22;10367;52.202;5.996;2023-07-22T11:05:53;21.30;99.90
20416;DHT22;10367;52.202;5.996;2023-07-22T11:08:36;21.60;99.90
20416;DHT22;10367;52.202;5.996;2023-07-22T11:11:07;21.70;99.90
20416;DHT22;10367;52.202;5.996;2023-07-22T11:13:38;21.80;99.90
20416;DHT22;10367;52.202;5.996;2023-07-22T11:16:10;22.00;99.90
20416;DHT22;10367;52.202;5.996;2023-07-22T11:18:40;21.90;99.90
20416;DHT22;10367;52.202;5.996;2023-07-22T11:21:11;21.90;99.90
20416;DHT22;10367;52.202;5.996;2023-07-22T11:23:40;22.00;99.90
20416;DHT22;10367;52.202;5.996;2023-07-22T11:26:10;21.90;99.90
20416;DHT22;10367;52.202;5.996;2023-07-22T11:28:39;21.80;99.90
20416;DHT22;10367;52.202;5.996;2023-07-22T11:31:09;21.60;99.90
20416;DHT22;10367;52.202;5.996;2023-07-22T11:33:39;21.30;99.90
20416;DHT22;10367;52.202;5.996;2023-07-22T11:36:10;20.90;99.90
20416;DHT22;10367;52.202;5.996;2023-07-22T11:38:39;20.50;99.90
20416;DHT22;10367;52.202;5.996;2023-07-22T11:41:09;19.90;99.90
20416;DHT22;10367;52.202;5.996;2023-07-22T11:43:44;19.30;99.90
20416;DHT22;10367;52.202;5.996;2023-07-22T11:46:13;19.00;99.90
20416;DHT22;10367;52.202;5.996;2023-07-22T11:48:49;18.90;99.90
20416;DHT22;10367;52.202;5.996;2023-07-22T11:51:20;18.70;99.90
20416;DHT22;10367;52.202;5.996;2023-07-22T11:53:50;18.70;99.90
20416;DHT22;10367;52.202;5.996;2023-07-22T11:56:23;18.60;99.90
20416;DHT22;10367;52.202;5.996;2023-07-22T11:58:53;18.60;99.90
20416;DHT22;10367;52.202;5.996;2023-07-22T12:01:23;18.70;99.90
20416;DHT22;10367;52.202;5.996;2023-07-22T12:03:55;18.80;99.90
20416;DHT22;10367;52.202;5.996;2023-07-22T12:06:25;19.00;99.90
20416;DHT22;10367;52.202;5.996;2023-07-22T12:08:54;19.20;99.90
20416;DHT22;10367;52.202;5.996;2023-07-22T12:11:25;19.30;99.90
20416;DHT22;10367;52.202;5.996;2023-07-22T12:14:06;19.40;99.90
20416;DHT22;10367;52.202;5.996;2023-07-22T12:16:40;19.60;99.90
20416;DHT22;10367;52.202;5.996;2023-07-22T12:19:09;19.80;99.90
20416;DHT22;10367;52.202;5.996;2023-07-22T12:21:38;20.00;99.90
20416;DHT22;10367;52.202;5.996;2023-07-22T12:24:07;20.30;99.90
20416;DHT22;10367;52.202;5.996;2023-07-22T12:26:37;20.70;99.90
20416;DHT22;10367;52.202;5.996;2023-07-22T12:29:06;20.90;99.90
20416;DHT22;10367;52.202;5.996;2023-07-22T12:31:35;21.20;99.90
20416;DHT22;10367;52.202;5.996;2023-07-22T12:34:04;21.30;99.90
20416;DHT22;10367;52.202;5.996;2023-07-22T12:36:32;21.10;99.90
20416;DHT22;10367;52.202;5.996;2023-07-22T12:39:01;20.90;99.90
20416;DHT22;10367;52.202;5.996;2023-07-22T12:41:32;20.80;99.90
20416;DHT22;10367;52.202;5.996;2023-07-22T12:44:02;20.70;99.90
20416;DHT22;10367;52.202;5.996;2023-07-22T12:46:31;20.50;99.90
20416;DHT22;10367;52.202;5.996;2023-07-22T12:49:00;20.30;99.90
20416;DHT22;10367;52.202;5.996;2023-07-22T12:51:29;20.20;99.90
20416;DHT22;10367;52.202;5.996;2023-07-22T12:53:57;20.10;99.90
20416;DHT22;10367;52.202;5.996;2023-07-22T12:56:26;20.10;99.90
20416;DHT22;10367;52.202;5.996;2023-07-22T12:58:55;19.90;99.90
20416;DHT22;10367;52.202;5.996;2023-07-22T13:01:26;19.50;99.90
20416;DHT22;10367;52.202;5.996;2023-07-22T13:03:55;19.00;99.90
20416;DHT22;10367;52.202;5.996;2023-07-22T13:06:24;18.60;99.90
20416;DHT22;10367;52.202;5.996;2023-07-22T13:08:54;18.10;99.90
20416;DHT22;10367;52.202;5.996;2023-07-22T13:11:25;17.90;99.90
20416;DHT22;10367;52.202;5.996;2023-07-22T13:13:54;17.50;99.90
20416;DHT22;10367;52.202;5.996;2023-07-22T13:16:24;17.40;99.90
20416;DHT22;10367;52.202;5.996;2023-07-22T13:18:54;17.20;99.90
20416;DHT22;10367;52.202;5.996;2023-07-22T13:21:22;17.10;99.90
20416;DHT22;10367;52.202;5.996;2023-07-22T13:23:51;17.20;99.90
20416;DHT22;10367;52.202;5.996;2023-07-22T13:26:20;17.40;99.90
20416;DHT22;10367;52.202;5.996;2023-07-22T13:28:49;17.70;99.90
20416;DHT22;10367;52.202;5.996;2023-07-22T13:31:19;18.00;99.90
20416;DHT22;10367;52.202;5.996;2023-07-22T13:33:49;18.20;99.90
20416;DHT22;10367;52.202;5.996;2023-07-22T13:36:18;18.40;99.90
20416;DHT22;10367;52.202;5.996;2023-07-22T13:38:47;18.30;99.90
20416;DHT22;10367;52.202;5.996;2023-07-22T13:41:15;18.40;99.90
20416;DHT22;10367;52.202;5.996;2023-07-22T13:43:44;18.40;99.90
20416;DHT22;10367;52.202;5.996;2023-07-22T13:46:12;18.40;99.90
20416;DHT22;10367;52.202;5.996;2023-07-22T13:48:41;18.50;99.90
20416;DHT22;10367;52.202;5.996;2023-07-22T13:51:11;18.50;99.90
20416;DHT22;10367;52.202;5.996;2023-07-22T13:53:40;18.50;99.90
20416;DHT22;10367;52.202;5.996;2023-07-22T13:56:09;18.30;99.90
20416;DHT22;10367;52.202;5.996;2023-07-22T13:58:37;18.40;99.90
20416;DHT22;10367;52.202;5.996;2023-07-22T14:01:06;18.60;99.90
20416;DHT22;10367;52.202;5.996;2023-07-22T14:03:35;18.50;99.90
20416;DHT22;10367;52.202;5.996;2023-07-22T14:06:04;18.50;99.90
20416;DHT22;10367;52.202;5.996;2023-07-22T14:08:34;18.50;99.90
20416;DHT22;10367;52.202;5.996;2023-07-22T14:11:03;18.50;99.90
20416;DHT22;10367;52.202;5.996;2023-07-22T14:13:32;18.40;99.90
20416;DHT22;10367;52.202;5.996;2023-07-22T14:16:02;18.50;99.90
20416;DHT22;10367;52.202;5.996;2023-07-22T14:18:47;18.40;99.90
20416;DHT22;10367;52.202;5.996;2023-07-22T14:21:16;18.40;99.90
20416;DHT22;10367;52.202;5.996;2023-07-22T14:23:46;18.40;99.90
20416;DHT22;10367;52.202;5.996;2023-07-22T14:26:15;18.30;99.90
20416;DHT22;10367;52.202;5.996;2023-07-22T14:28:44;18.10;99.90
20416;DHT22;10367;52.202;5.996;2023-07-22T14:31:12;17.90;99.90
20416;DHT22;10367;52.202;5.996;2023-07-22T14:33:41;17.80;99.90
20416;DHT22;10367;52.202;5.996;2023-07-22T14:36:13;17.90;99.90
20416;DHT22;10367;52.202;5.996;2023-07-22T14:38:41;17.70;99.90
20416;DHT22;10367;52.202;5.996;2023-07-22T14:41:12;17.70;99.90
20416;DHT22;10367;52.202;5.996;2023-07-22T14:43:40;17.70;99.90
20416;DHT22;10367;52.202;5.996;2023-07-22T14:46:09;17.70;99.90
20416;DHT22;10367;52.202;5.996;2023-07-22T14:48:38;17.70;99.90
20416;DHT22;10367;52.202;5.996;2023-07-22T14:51:08;17.90;99.90
20416;DHT22;10367;52.202;5.996;2023-07-22T14:53:37;18.00;99.90
20416;DHT22;10367;52.202;5.996;2023-07-22T14:56:05;18.00;99.90
20416;DHT22;10367;52.202;5.996;2023-07-22T14:58:36;18.00;99.90
20416;DHT22;10367;52.202;5.996;2023-07-22T15:01:04;18.10;99.90
20416;DHT22;10367;52.202;5.996;2023-07-22T15:03:34;18.20;99.90
20416;DHT22;10367;52.202;5.996;2023-07-22T15:06:03;18.30;99.90
20416;DHT22;10367;52.202;5.996;2023-07-22T15:08:31;18.40;99.90
20416;DHT22;10367;52.202;5.996;2023-07-22T15:11:00;18.50;99.90
20416;DHT22;10367;52.202;5.996;2023-07-22T15:13:29;18.50;99.90
20416;DHT22;10367;52.202;5.996;2023-07-22T15:15:59;18.60;99.90
20416;DHT22;10367;52.202;5.996;2023-07-22T15:18:28;18.70;99.90
20416;DHT22;10367;52.202;5.996;2023-07-22T15:20:56;18.80;99.90
20416;DHT22;10367;52.202;5.996;2023-07-22T15:23:25;18.80;99.90
20416;DHT22;10367;52.202;5.996;2023-07-22T15:25:54;18.80;99.90
20416;DHT22;10367;52.202;5.996;2023-07-22T15:28:23;18.90;99.90
20416;DHT22;10367;52.202;5.996;2023-07-22T15:30:53;18.90;99.90
20416;DHT22;10367;52.202;5.996;2023-07-22T15:33:23;19.00;99.90
20416;DHT22;10367;52.202;5.996;2023-07-22T15:35:54;19.10;99.90
20416;DHT22;10367;52.202;5.996;2023-07-22T15:38:22;19.10;99.90
20416;DHT22;10367;52.202;5.996;2023-07-22T15:40:51;19.10;99.90
20416;DHT22;10367;52.202;5.996;2023-07-22T15:43:20;19.10;99.90
20416;DHT22;10367;52.202;5.996;2023-07-22T15:45:49;19.00;99.90
20416;DHT22;10367;52.202;5.996;2023-07-22T15:48:17;19.10;99.90
20416;DHT22;10367;52.202;5.996;2023-07-22T15:50:48;19.10;99.90
20416;DHT22;10367;52.202;5.996;2023-07-22T15:53:17;19.00;99.90
20416;DHT22;10367;52.202;5.996;2023-07-22T15:55:45;18.90;99.90